sensor_id;sensor_type;location;lat;lon;timestamp;P1;durP1;ratioP1;P2;durP2;ratioP2
64641;SDS011;59936;51.490;5.436;2024-03-22T00:04:42;29.70;;;16.10;;
64641;SDS011;59936;51.490;5.436;2024-03-22T00:07:09;26.60;;;14.10;;
64641;SDS011;59936;51.490;5.436;2024-03-22T00:09:36;33.60;;;16.40;;
64641;SDS011;59936;51.490;5.436;2024-03-22T00:12:03;29.90;;;15.90;;
64641;SDS011;59936;51.490;5.436;2024-03-22T00:16:56;30.00;;;16.80;;
64641;SDS011;59936;51.490;5.436;2024-03-22T00:19:23;31.10;;;17.70;;
64641;SDS011;59936;51.490;5.436;2024-03-22T00:21:50;41.10;;;22.50;;
64641;SDS011;59936;51.490;5.436;2024-03-22T00:24:17;32.10;;;18.00;;
64641;SDS011;59936;51.490;5.436;2024-03-22T00:29:10;26.40;;;13.10;;
64641;SDS011;59936;51.490;5.436;2024-03-22T00:31:37;30.20;;;15.80;;
64641;SDS011;59936;51.490;5.436;2024-03-22T00:34:04;24.60;;;13.40;;
64641;SDS011;59936;51.490;5.436;2024-03-22T00:36:31;26.20;;;13.10;;
64641;SDS011;59936;51.490;5.436;2024-03-22T00:41:24;25.60;;;14.20;;
64641;SDS011;59936;51.490;5.436;2024-03-22T00:43:51;26.30;;;15.00;;
64641;SDS011;59936;51.490;5.436;2024-03-22T00:46:18;25.10;;;13.30;;
64641;SDS011;59936;51.490;5.436;2024-03-22T00:48:45;32.30;;;18.10;;
64641;SDS011;59936;51.490;5.436;2024-03-22T00:53:39;23.90;;;14.10;;
64641;SDS011;59936;51.490;5.436;2024-03-22T00:56:05;25.70;;;15.30;;
64641;SDS011;59936;51.490;5.436;2024-03-22T00:58:32;23.50;;;13.90;;
64641;SDS011;59936;51.490;5.436;2024-03-22T01:00:59;28.10;;;16.10;;
64641;SDS011;59936;51.490;5.436;2024-03-22T01:07:56;31.30;;;17.70;;
64641;SDS011;59936;51.490;5.436;2024-03-22T01:10:23;33.20;;;19.30;;
64641;SDS011;59936;51.490;5.436;2024-03-22T01:12:50;30.10;;;16.70;;
64641;SDS011;59936;51.490;5.436;2024-03-22T01:25:48;29.50;;;16.10;;
64641;SDS011;59936;51.490;5.436;2024-03-22T01:28:15;29.20;;;17.60;;
64641;SDS011;59936;51.490;5.436;2024-03-22T01:30:42;28.40;;;15.80;;
64641;SDS011;59936;51.490;5.436;2024-03-22T01:35:36;40.50;;;23.80;;
64641;SDS011;59936;51.490;5.436;2024-03-22T01:38:03;27.50;;;15.70;;
64641;SDS011;59936;51.490;5.436;2024-03-22T01:40:30;29.20;;;17.60;;
64641;SDS011;59936;51.490;5.436;2024-03-22T01:42:56;26.20;;;15.20;;
64641;SDS011;59936;51.490;5.436;2024-03-22T01:47:57;23.90;;;14.50;;
64641;SDS011;59936;51.490;5.436;2024-03-22T01:50:26;26.40;;;15.50;;
64641;SDS011;59936;51.490;5.436;2024-03-22T01:52:54;27.20;;;15.70;;
64641;SDS011;59936;51.490;5.436;2024-03-22T01:55:21;36.70;;;20.40;;
64641;SDS011;59936;51.490;5.436;2024-03-22T02:00:18;30.40;;;17.20;;
64641;SDS011;59936;51.490;5.436;2024-03-22T02:02:45;31.60;;;18.80;;
64641;SDS011;59936;51.490;5.436;2024-03-22T02:07:43;25.70;;;15.50;;
64641;SDS011;59936;51.490;5.436;2024-03-22T02:12:40;17.90;;;11.40;;
64641;SDS011;59936;51.490;5.436;2024-03-22T02:15:07;23.70;;;13.50;;
64641;SDS011;59936;51.490;5.436;2024-03-22T02:17:35;26.30;;;15.70;;
64641;SDS011;59936;51.490;5.436;2024-03-22T02:20:02;21.90;;;13.60;;
64641;SDS011;59936;51.490;5.436;2024-03-22T02:24:56;25.20;;;14.90;;
64641;SDS011;59936;51.490;5.436;2024-03-22T02:27:24;24.90;;;14.80;;
64641;SDS011;59936;51.490;5.436;2024-03-22T02:29:52;26.50;;;15.80;;
64641;SDS011;59936;51.490;5.436;2024-03-22T02:32:18;26.90;;;13.30;;
64641;SDS011;59936;51.490;5.436;2024-03-22T02:37:12;22.70;;;13.60;;
64641;SDS011;59936;51.490;5.436;2024-03-22T02:39:39;24.00;;;14.70;;
64641;SDS011;59936;51.490;5.436;2024-03-22T02:42:06;22.90;;;13.50;;
64641;SDS011;59936;51.490;5.436;2024-03-22T02:44:33;24.70;;;14.00;;
64641;SDS011;59936;51.490;5.436;2024-03-22T02:49:26;19.50;;;11.60;;
64641;SDS011;59936;51.490;5.436;2024-03-22T02:51:53;20.10;;;11.30;;
64641;SDS011;59936;51.490;5.436;2024-03-22T02:54:20;33.50;;;19.70;;
64641;SDS011;59936;51.490;5.436;2024-03-22T02:56:47;25.20;;;14.20;;
64641;SDS011;59936;51.490;5.436;2024-03-22T03:01:40;26.20;;;14.00;;
64641;SDS011;59936;51.490;5.436;2024-03-22T03:04:07;24.70;;;15.20;;
64641;SDS011;59936;51.490;5.436;2024-03-22T03:06:34;26.80;;;16.60;;
64641;SDS011;59936;51.490;5.436;2024-03-22T03:09:02;24.50;;;15.00;;
64641;SDS011;59936;51.490;5.436;2024-03-22T03:13:55;24.60;;;15.20;;
64641;SDS011;59936;51.490;5.436;2024-03-22T03:16:22;24.10;;;14.30;;
64641;SDS011;59936;51.490;5.436;2024-03-22T03:18:49;29.10;;;15.00;;
64641;SDS011;59936;51.490;5.436;2024-03-22T03:21:16;33.00;;;18.60;;
64641;SDS011;59936;51.490;5.436;2024-03-22T03:26:09;29.20;;;17.80;;
64641;SDS011;59936;51.490;5.436;2024-03-22T03:28:36;23.30;;;13.40;;
64641;SDS011;59936;51.490;5.436;2024-03-22T03:31:03;23.60;;;14.20;;
64641;SDS011;59936;51.490;5.436;2024-03-22T03:33:30;21.90;;;13.50;;
64641;SDS011;59936;51.490;5.436;2024-03-22T03:38:24;25.50;;;13.80;;
64641;SDS011;59936;51.490;5.436;2024-03-22T03:40:51;26.80;;;15.80;;
64641;SDS011;59936;51.490;5.436;2024-03-22T03:43:18;26.70;;;14.30;;
64641;SDS011;59936;51.490;5.436;2024-03-22T03:45:45;21.40;;;14.20;;
64641;SDS011;59936;51.490;5.436;2024-03-22T03:50:38;24.80;;;14.50;;
64641;SDS011;59936;51.490;5.436;2024-03-22T03:53:05;23.40;;;13.70;;
64641;SDS011;59936;51.490;5.436;2024-03-22T03:55:32;23.90;;;13.70;;
64641;SDS011;59936;51.490;5.436;2024-03-22T03:57:59;23.40;;;12.90;;
64641;SDS011;59936;51.490;5.436;2024-03-22T04:02:52;17.10;;;10.60;;
64641;SDS011;59936;51.490;5.436;2024-03-22T04:05:19;21.20;;;12.60;;
64641;SDS011;59936;51.490;5.436;2024-03-22T04:07:47;32.90;;;19.50;;
64641;SDS011;59936;51.490;5.436;2024-03-22T04:10:14;26.30;;;15.30;;
64641;SDS011;59936;51.490;5.436;2024-03-22T04:15:07;21.40;;;12.40;;
64641;SDS011;59936;51.490;5.436;2024-03-22T04:17:34;24.40;;;14.10;;
64641;SDS011;59936;51.490;5.436;2024-03-22T04:20:02;26.00;;;16.00;;
64641;SDS011;59936;51.490;5.436;2024-03-22T04:22:29;26.20;;;16.90;;
64641;SDS011;59936;51.490;5.436;2024-03-22T04:27:23;26.50;;;15.70;;
64641;SDS011;59936;51.490;5.436;2024-03-22T04:29:50;27.80;;;15.60;;
64641;SDS011;59936;51.490;5.436;2024-03-22T04:32:16;27.20;;;17.50;;
64641;SDS011;59936;51.490;5.436;2024-03-22T04:34:43;27.20;;;16.40;;
64641;SDS011;59936;51.490;5.436;2024-03-22T04:39:37;27.70;;;16.40;;
64641;SDS011;59936;51.490;5.436;2024-03-22T04:42:06;24.30;;;15.70;;
64641;SDS011;59936;51.490;5.436;2024-03-22T04:44:33;26.10;;;14.80;;
64641;SDS011;59936;51.490;5.436;2024-03-22T04:47:00;27.80;;;15.20;;
64641;SDS011;59936;51.490;5.436;2024-03-22T04:49:27;22.50;;;14.20;;
64641;SDS011;59936;51.490;5.436;2024-03-22T04:51:54;31.80;;;17.80;;
64641;SDS011;59936;51.490;5.436;2024-03-22T04:54:21;39.50;;;24.10;;
64641;SDS011;59936;51.490;5.436;2024-03-22T04:56:48;25.20;;;14.70;;
64641;SDS011;59936;51.490;5.436;2024-03-22T04:59:16;23.50;;;14.00;;
64641;SDS011;59936;51.490;5.436;2024-03-22T05:04:10;29.20;;;18.70;;
64641;SDS011;59936;51.490;5.436;2024-03-22T05:06:36;24.70;;;14.40;;
64641;SDS011;59936;51.490;5.436;2024-03-22T05:09:03;21.70;;;13.20;;
64641;SDS011;59936;51.490;5.436;2024-03-22T05:11:30;23.70;;;13.20;;
64641;SDS011;59936;51.490;5.436;2024-03-22T05:16:24;24.10;;;15.50;;
64641;SDS011;59936;51.490;5.436;2024-03-22T05:18:51;29.10;;;17.20;;
64641;SDS011;59936;51.490;5.436;2024-03-22T05:21:17;26.20;;;16.60;;
64641;SDS011;59936;51.490;5.436;2024-03-22T05:23:44;27.40;;;17.10;;
64641;SDS011;59936;51.490;5.436;2024-03-22T05:26:12;25.50;;;15.50;;
64641;SDS011;59936;51.490;5.436;2024-03-22T05:28:39;28.60;;;15.00;;
64641;SDS011;59936;51.490;5.436;2024-03-22T05:31:05;24.50;;;14.40;;
64641;SDS011;59936;51.490;5.436;2024-03-22T05:33:32;24.10;;;14.00;;
64641;SDS011;59936;51.490;5.436;2024-03-22T05:38:26;30.10;;;18.10;;
64641;SDS011;59936;51.490;5.436;2024-03-22T05:40:53;25.30;;;13.30;;
64641;SDS011;59936;51.490;5.436;2024-03-22T05:43:20;24.40;;;13.60;;
64641;SDS011;59936;51.490;5.436;2024-03-22T05:45:46;22.80;;;12.70;;
64641;SDS011;59936;51.490;5.436;2024-03-22T05:50:40;27.20;;;16.60;;
64641;SDS011;59936;51.490;5.436;2024-03-22T05:53:07;29.70;;;17.00;;
64641;SDS011;59936;51.490;5.436;2024-03-22T05:55:34;23.80;;;15.20;;
64641;SDS011;59936;51.490;5.436;2024-03-22T05:58:01;21.80;;;13.20;;
64641;SDS011;59936;51.490;5.436;2024-03-22T06:00:28;26.70;;;16.30;;
64641;SDS011;59936;51.490;5.436;2024-03-22T06:02:54;22.80;;;13.90;;
64641;SDS011;59936;51.490;5.436;2024-03-22T06:05:21;21.40;;;12.50;;
64641;SDS011;59936;51.490;5.436;2024-03-22T06:07:48;23.20;;;13.50;;
64641;SDS011;59936;51.490;5.436;2024-03-22T06:10:15;22.10;;;12.50;;
64641;SDS011;59936;51.490;5.436;2024-03-22T06:15:09;20.50;;;12.10;;
64641;SDS011;59936;51.490;5.436;2024-03-22T06:17:36;25.60;;;14.70;;
64641;SDS011;59936;51.490;5.436;2024-03-22T06:20:02;25.80;;;15.10;;
64641;SDS011;59936;51.490;5.436;2024-03-22T06:22:30;16.00;;;10.00;;
64641;SDS011;59936;51.490;5.436;2024-03-22T06:27:24;20.80;;;12.10;;
64641;SDS011;59936;51.490;5.436;2024-03-22T06:29:50;21.60;;;11.80;;
64641;SDS011;59936;51.490;5.436;2024-03-22T06:32:17;24.50;;;13.60;;
64641;SDS011;59936;51.490;5.436;2024-03-22T06:34:44;21.10;;;11.40;;
64641;SDS011;59936;51.490;5.436;2024-03-22T06:39:38;20.00;;;12.50;;
64641;SDS011;59936;51.490;5.436;2024-03-22T06:42:04;18.90;;;11.10;;
64641;SDS011;59936;51.490;5.436;2024-03-22T06:44:31;20.00;;;10.60;;
64641;SDS011;59936;51.490;5.436;2024-03-22T06:46:58;20.20;;;12.30;;
64641;SDS011;59936;51.490;5.436;2024-03-22T06:51:52;19.30;;;12.40;;
64641;SDS011;59936;51.490;5.436;2024-03-22T06:54:19;20.70;;;13.80;;
64641;SDS011;59936;51.490;5.436;2024-03-22T06:56:45;19.20;;;12.00;;
64641;SDS011;59936;51.490;5.436;2024-03-22T06:59:12;22.60;;;12.10;;
64641;SDS011;59936;51.490;5.436;2024-03-22T07:04:06;23.00;;;12.50;;
64641;SDS011;59936;51.490;5.436;2024-03-22T07:06:33;20.20;;;11.80;;
64641;SDS011;59936;51.490;5.436;2024-03-22T07:09:00;18.30;;;11.70;;
64641;SDS011;59936;51.490;5.436;2024-03-22T07:11:26;21.70;;;13.00;;
64641;SDS011;59936;51.490;5.436;2024-03-22T07:13:53;17.60;;;11.30;;
64641;SDS011;59936;51.490;5.436;2024-03-22T07:16:20;22.10;;;14.10;;
64641;SDS011;59936;51.490;5.436;2024-03-22T07:18:47;17.30;;;11.20;;
64641;SDS011;59936;51.490;5.436;2024-03-22T07:21:14;20.10;;;12.40;;
64641;SDS011;59936;51.490;5.436;2024-03-22T07:23:41;18.60;;;12.00;;
64641;SDS011;59936;51.490;5.436;2024-03-22T07:28:35;18.90;;;11.30;;
64641;SDS011;59936;51.490;5.436;2024-03-22T07:31:01;19.50;;;11.70;;
64641;SDS011;59936;51.490;5.436;2024-03-22T07:33:30;18.40;;;11.50;;
64641;SDS011;59936;51.490;5.436;2024-03-22T07:36:01;20.60;;;14.00;;
64641;SDS011;59936;51.490;5.436;2024-03-22T07:38:29;21.60;;;13.50;;
64641;SDS011;59936;51.490;5.436;2024-03-22T07:40:56;21.80;;;12.80;;
64641;SDS011;59936;51.490;5.436;2024-03-22T07:43:23;18.10;;;11.20;;
64641;SDS011;59936;51.490;5.436;2024-03-22T07:45:50;21.70;;;11.50;;
64641;SDS011;59936;51.490;5.436;2024-03-22T07:48:17;18.30;;;11.40;;
64641;SDS011;59936;51.490;5.436;2024-03-22T07:53:10;20.30;;;11.90;;
64641;SDS011;59936;51.490;5.436;2024-03-22T07:55:37;20.20;;;11.80;;
64641;SDS011;59936;51.490;5.436;2024-03-22T07:58:04;20.40;;;13.40;;
64641;SDS011;59936;51.490;5.436;2024-03-22T08:00:31;17.70;;;10.90;;
64641;SDS011;59936;51.490;5.436;2024-03-22T08:05:24;18.10;;;10.50;;
64641;SDS011;59936;51.490;5.436;2024-03-22T08:07:51;19.90;;;11.50;;
64641;SDS011;59936;51.490;5.436;2024-03-22T08:10:18;15.70;;;10.80;;
64641;SDS011;59936;51.490;5.436;2024-03-22T08:12:45;15.20;;;10.70;;
64641;SDS011;59936;51.490;5.436;2024-03-22T08:17:38;19.10;;;12.30;;
64641;SDS011;59936;51.490;5.436;2024-03-22T08:20:06;16.50;;;9.20;;
64641;SDS011;59936;51.490;5.436;2024-03-22T08:22:33;21.30;;;12.60;;
64641;SDS011;59936;51.490;5.436;2024-03-22T08:25:00;16.20;;;10.20;;
64641;SDS011;59936;51.490;5.436;2024-03-22T08:29:54;16.60;;;10.80;;
64641;SDS011;59936;51.490;5.436;2024-03-22T08:32:21;17.70;;;10.40;;
64641;SDS011;59936;51.490;5.436;2024-03-22T08:34:47;18.00;;;10.70;;
64641;SDS011;59936;51.490;5.436;2024-03-22T08:37:14;19.30;;;11.70;;
64641;SDS011;59936;51.490;5.436;2024-03-22T08:42:08;17.90;;;11.20;;
64641;SDS011;59936;51.490;5.436;2024-03-22T08:44:35;18.90;;;11.10;;
64641;SDS011;59936;51.490;5.436;2024-03-22T08:47:02;20.80;;;11.70;;
64641;SDS011;59936;51.490;5.436;2024-03-22T08:49:29;19.00;;;10.10;;
64641;SDS011;59936;51.490;5.436;2024-03-22T08:51:56;16.80;;;11.50;;
64641;SDS011;59936;51.490;5.436;2024-03-22T08:54:23;18.50;;;11.00;;
64641;SDS011;59936;51.490;5.436;2024-03-22T08:56:50;18.80;;;10.90;;
64641;SDS011;59936;51.490;5.436;2024-03-22T08:59:17;13.50;;;8.80;;
64641;SDS011;59936;51.490;5.436;2024-03-22T09:01:44;16.00;;;9.80;;
64641;SDS011;59936;51.490;5.436;2024-03-22T09:04:11;18.60;;;10.30;;
64641;SDS011;59936;51.490;5.436;2024-03-22T09:06:37;14.60;;;9.70;;
64641;SDS011;59936;51.490;5.436;2024-03-22T09:09:04;14.20;;;8.70;;
64641;SDS011;59936;51.490;5.436;2024-03-22T09:11:31;16.10;;;11.50;;
64641;SDS011;59936;51.490;5.436;2024-03-22T09:13:58;13.70;;;9.10;;
64641;SDS011;59936;51.490;5.436;2024-03-22T09:18:51;16.00;;;10.80;;
64641;SDS011;59936;51.490;5.436;2024-03-22T09:21:18;14.60;;;8.50;;
64641;SDS011;59936;51.490;5.436;2024-03-22T09:23:45;16.70;;;10.80;;
64641;SDS011;59936;51.490;5.436;2024-03-22T09:26:12;16.90;;;9.80;;
64641;SDS011;59936;51.490;5.436;2024-03-22T09:31:06;15.80;;;10.60;;
64641;SDS011;59936;51.490;5.436;2024-03-22T09:33:34;13.40;;;9.00;;
64641;SDS011;59936;51.490;5.436;2024-03-22T09:36:01;14.80;;;8.60;;
64641;SDS011;59936;51.490;5.436;2024-03-22T09:38:29;12.80;;;8.80;;
64641;SDS011;59936;51.490;5.436;2024-03-22T09:43:23;14.80;;;8.60;;
64641;SDS011;59936;51.490;5.436;2024-03-22T09:45:53;12.10;;;7.90;;
64641;SDS011;59936;51.490;5.436;2024-03-22T09:48:21;12.20;;;7.90;;
64641;SDS011;59936;51.490;5.436;2024-03-22T09:50:49;13.00;;;7.90;;
64641;SDS011;59936;51.490;5.436;2024-03-22T09:55:48;10.90;;;7.10;;
64641;SDS011;59936;51.490;5.436;2024-03-22T09:58:16;12.80;;;8.00;;
64641;SDS011;59936;51.490;5.436;2024-03-22T10:00:43;11.10;;;8.00;;
64641;SDS011;59936;51.490;5.436;2024-03-22T10:03:10;13.80;;;8.90;;
64641;SDS011;59936;51.490;5.436;2024-03-22T10:08:04;14.30;;;8.70;;
64641;SDS011;59936;51.490;5.436;2024-03-22T10:10:31;11.80;;;7.90;;
64641;SDS011;59936;51.490;5.436;2024-03-22T10:13:03;11.10;;;7.60;;
64641;SDS011;59936;51.490;5.436;2024-03-22T10:15:30;10.30;;;7.20;;
64641;SDS011;59936;51.490;5.436;2024-03-22T10:20:24;13.60;;;8.40;;
64641;SDS011;59936;51.490;5.436;2024-03-22T10:22:58;12.50;;;7.70;;
64641;SDS011;59936;51.490;5.436;2024-03-22T10:25:26;13.70;;;9.20;;
64641;SDS011;59936;51.490;5.436;2024-03-22T10:27:55;13.60;;;7.90;;
64641;SDS011;59936;51.490;5.436;2024-03-22T10:32:50;10.60;;;7.70;;
64641;SDS011;59936;51.490;5.436;2024-03-22T10:35:18;13.80;;;7.80;;
64641;SDS011;59936;51.490;5.436;2024-03-22T10:37:45;14.80;;;8.90;;
64641;SDS011;59936;51.490;5.436;2024-03-22T10:40:13;13.70;;;9.60;;
64641;SDS011;59936;51.490;5.436;2024-03-22T10:45:09;13.60;;;9.40;;
64641;SDS011;59936;51.490;5.436;2024-03-22T10:47:38;17.80;;;11.90;;
64641;SDS011;59936;51.490;5.436;2024-03-22T10:58:02;12.70;;;9.30;;
64641;SDS011;59936;51.490;5.436;2024-03-22T11:00:30;21.40;;;11.80;;
64641;SDS011;59936;51.490;5.436;2024-03-22T11:03:03;17.00;;;9.60;;
64641;SDS011;59936;51.490;5.436;2024-03-22T11:05:33;13.60;;;9.60;;
64641;SDS011;59936;51.490;5.436;2024-03-22T11:10:29;20.90;;;11.80;;
64641;SDS011;59936;51.490;5.436;2024-03-22T11:13:00;16.90;;;11.90;;
64641;SDS011;59936;51.490;5.436;2024-03-22T11:15:29;15.70;;;10.70;;
64641;SDS011;59936;51.490;5.436;2024-03-22T11:17:57;17.80;;;12.70;;
64641;SDS011;59936;51.490;5.436;2024-03-22T11:22:53;20.80;;;13.70;;
64641;SDS011;59936;51.490;5.436;2024-03-22T11:25:21;18.70;;;12.00;;
64641;SDS011;59936;51.490;5.436;2024-03-22T11:27:48;20.80;;;13.60;;
64641;SDS011;59936;51.490;5.436;2024-03-22T11:30:15;18.80;;;11.90;;
64641;SDS011;59936;51.490;5.436;2024-03-22T11:35:10;19.20;;;13.30;;
64641;SDS011;59936;51.490;5.436;2024-03-22T11:37:40;20.00;;;12.80;;
64641;SDS011;59936;51.490;5.436;2024-03-22T11:40:11;19.00;;;13.10;;
64641;SDS011;59936;51.490;5.436;2024-03-22T11:42:42;22.00;;;16.00;;
64641;SDS011;59936;51.490;5.436;2024-03-22T11:47:48;17.60;;;12.00;;
64641;SDS011;59936;51.490;5.436;2024-03-22T11:50:15;14.40;;;9.90;;
64641;SDS011;59936;51.490;5.436;2024-03-22T11:52:43;14.10;;;10.40;;
64641;SDS011;59936;51.490;5.436;2024-03-22T11:55:10;15.50;;;10.60;;
64641;SDS011;59936;51.490;5.436;2024-03-22T12:00:04;15.00;;;10.50;;
64641;SDS011;59936;51.490;5.436;2024-03-22T12:02:35;17.60;;;11.10;;
64641;SDS011;59936;51.490;5.436;2024-03-22T12:05:03;18.60;;;12.40;;
64641;SDS011;59936;51.490;5.436;2024-03-22T12:07:31;16.60;;;10.80;;
64641;SDS011;59936;51.490;5.436;2024-03-22T12:12:26;16.90;;;10.00;;
64641;SDS011;59936;51.490;5.436;2024-03-22T12:14:55;15.60;;;8.60;;
64641;SDS011;59936;51.490;5.436;2024-03-22T12:17:22;13.90;;;8.60;;
64641;SDS011;59936;51.490;5.436;2024-03-22T12:19:49;16.10;;;10.60;;
64641;SDS011;59936;51.490;5.436;2024-03-22T12:24:43;17.00;;;11.30;;
64641;SDS011;59936;51.490;5.436;2024-03-22T12:27:10;14.80;;;10.80;;
64641;SDS011;59936;51.490;5.436;2024-03-22T12:29:37;13.50;;;9.10;;
64641;SDS011;59936;51.490;5.436;2024-03-22T12:32:04;12.20;;;8.50;;
64641;SDS011;59936;51.490;5.436;2024-03-22T12:34:32;17.00;;;10.00;;
64641;SDS011;59936;51.490;5.436;2024-03-22T12:36:59;13.70;;;10.30;;
64641;SDS011;59936;51.490;5.436;2024-03-22T12:39:26;17.60;;;11.00;;
64641;SDS011;59936;51.490;5.436;2024-03-22T12:41:53;13.40;;;9.00;;
64641;SDS011;59936;51.490;5.436;2024-03-22T12:44:21;13.40;;;8.70;;
64641;SDS011;59936;51.490;5.436;2024-03-22T12:49:14;12.30;;;8.30;;
64641;SDS011;59936;51.490;5.436;2024-03-22T12:51:41;15.40;;;8.60;;
64641;SDS011;59936;51.490;5.436;2024-03-22T12:54:08;11.80;;;7.80;;
64641;SDS011;59936;51.490;5.436;2024-03-22T12:56:35;12.40;;;8.20;;
64641;SDS011;59936;51.490;5.436;2024-03-22T13:01:29;18.40;;;12.20;;
64641;SDS011;59936;51.490;5.436;2024-03-22T13:03:56;16.20;;;9.10;;
64641;SDS011;59936;51.490;5.436;2024-03-22T13:06:23;14.30;;;9.00;;
64641;SDS011;59936;51.490;5.436;2024-03-22T13:08:49;20.20;;;13.40;;
64641;SDS011;59936;51.490;5.436;2024-03-22T13:13:43;17.00;;;10.90;;
64641;SDS011;59936;51.490;5.436;2024-03-22T13:16:10;13.40;;;9.60;;
64641;SDS011;59936;51.490;5.436;2024-03-22T13:18:37;15.30;;;10.00;;
64641;SDS011;59936;51.490;5.436;2024-03-22T13:21:04;19.80;;;11.00;;
64641;SDS011;59936;51.490;5.436;2024-03-22T13:26:01;12.70;;;7.70;;
64641;SDS011;59936;51.490;5.436;2024-03-22T13:28:30;13.70;;;8.80;;
64641;SDS011;59936;51.490;5.436;2024-03-22T13:31:01;12.00;;;8.00;;
64641;SDS011;59936;51.490;5.436;2024-03-22T13:33:32;12.80;;;7.80;;
64641;SDS011;59936;51.490;5.436;2024-03-22T13:38:27;13.10;;;7.80;;
64641;SDS011;59936;51.490;5.436;2024-03-22T13:40:57;11.10;;;6.50;;
64641;SDS011;59936;51.490;5.436;2024-03-22T13:43:25;11.40;;;7.20;;
64641;SDS011;59936;51.490;5.436;2024-03-22T13:45:53;10.30;;;6.00;;
64641;SDS011;59936;51.490;5.436;2024-03-22T13:50:48;10.40;;;6.20;;
64641;SDS011;59936;51.490;5.436;2024-03-22T13:53:19;12.30;;;7.20;;
64641;SDS011;59936;51.490;5.436;2024-03-22T13:55:50;8.50;;;5.60;;
64641;SDS011;59936;51.490;5.436;2024-03-22T13:58:17;9.70;;;6.10;;
64641;SDS011;59936;51.490;5.436;2024-03-22T14:03:11;10.30;;;7.00;;
64641;SDS011;59936;51.490;5.436;2024-03-22T14:05:38;9.80;;;6.40;;
64641;SDS011;59936;51.490;5.436;2024-03-22T14:08:05;9.50;;;6.20;;
64641;SDS011;59936;51.490;5.436;2024-03-22T14:10:32;8.30;;;5.20;;
64641;SDS011;59936;51.490;5.436;2024-03-22T14:12:59;7.60;;;5.20;;
64641;SDS011;59936;51.490;5.436;2024-03-22T14:15:26;9.30;;;6.00;;
64641;SDS011;59936;51.490;5.436;2024-03-22T14:17:53;7.80;;;5.00;;
64641;SDS011;59936;51.490;5.436;2024-03-22T14:20:20;7.20;;;4.90;;
64641;SDS011;59936;51.490;5.436;2024-03-22T14:22:47;7.70;;;5.00;;
64641;SDS011;59936;51.490;5.436;2024-03-22T14:25:14;6.80;;;4.80;;
64641;SDS011;59936;51.490;5.436;2024-03-22T14:27:41;7.70;;;4.70;;
64641;SDS011;59936;51.490;5.436;2024-03-22T14:30:07;9.30;;;5.00;;
64641;SDS011;59936;51.490;5.436;2024-03-22T14:32:35;10.10;;;7.40;;
64641;SDS011;59936;51.490;5.436;2024-03-22T14:35:02;9.30;;;5.50;;
64641;SDS011;59936;51.490;5.436;2024-03-22T14:39:56;9.20;;;6.30;;
64641;SDS011;59936;51.490;5.436;2024-03-22T14:42:23;8.20;;;5.60;;
64641;SDS011;59936;51.490;5.436;2024-03-22T14:44:51;6.80;;;4.40;;
64641;SDS011;59936;51.490;5.436;2024-03-22T14:47:17;7.60;;;5.00;;
64641;SDS011;59936;51.490;5.436;2024-03-22T14:49:44;7.50;;;4.10;;
64641;SDS011;59936;51.490;5.436;2024-03-22T14:52:11;7.40;;;4.50;;
64641;SDS011;59936;51.490;5.436;2024-03-22T14:54:38;7.80;;;4.80;;
64641;SDS011;59936;51.490;5.436;2024-03-22T14:57:05;8.70;;;5.40;;
64641;SDS011;59936;51.490;5.436;2024-03-22T15:01:58;11.30;;;6.50;;
64641;SDS011;59936;51.490;5.436;2024-03-22T15:04:25;10.50;;;6.30;;
64641;SDS011;59936;51.490;5.436;2024-03-22T15:06:52;7.70;;;5.00;;
64641;SDS011;59936;51.490;5.436;2024-03-22T15:09:19;7.10;;;5.20;;
64641;SDS011;59936;51.490;5.436;2024-03-22T15:14:13;6.40;;;3.90;;
64641;SDS011;59936;51.490;5.436;2024-03-22T15:16:40;7.30;;;4.90;;
64641;SDS011;59936;51.490;5.436;2024-03-22T15:19:07;7.80;;;4.60;;
64641;SDS011;59936;51.490;5.436;2024-03-22T15:21:38;7.00;;;4.10;;
64641;SDS011;59936;51.490;5.436;2024-03-22T15:26:32;10.60;;;6.70;;
64641;SDS011;59936;51.490;5.436;2024-03-22T15:28:59;7.70;;;4.90;;
64641;SDS011;59936;51.490;5.436;2024-03-22T15:31:26;8.00;;;4.60;;
64641;SDS011;59936;51.490;5.436;2024-03-22T15:33:52;16.00;;;10.10;;
64641;SDS011;59936;51.490;5.436;2024-03-22T15:36:19;10.90;;;7.60;;
64641;SDS011;59936;51.490;5.436;2024-03-22T15:38:46;10.60;;;6.70;;
64641;SDS011;59936;51.490;5.436;2024-03-22T15:41:13;17.20;;;11.20;;
64641;SDS011;59936;51.490;5.436;2024-03-22T15:43:40;16.00;;;9.90;;
64641;SDS011;59936;51.490;5.436;2024-03-22T15:46:07;20.30;;;12.00;;
64641;SDS011;59936;51.490;5.436;2024-03-22T15:51:00;13.30;;;8.00;;
64641;SDS011;59936;51.490;5.436;2024-03-22T15:53:27;18.10;;;10.90;;
64641;SDS011;59936;51.490;5.436;2024-03-22T15:55:54;16.10;;;9.20;;
64641;SDS011;59936;51.490;5.436;2024-03-22T15:58:21;12.30;;;7.00;;
64641;SDS011;59936;51.490;5.436;2024-03-22T16:00:48;11.90;;;7.40;;
64641;SDS011;59936;51.490;5.436;2024-03-22T16:03:15;11.20;;;6.30;;
64641;SDS011;59936;51.490;5.436;2024-03-22T16:05:49;10.00;;;5.60;;
64641;SDS011;59936;51.490;5.436;2024-03-22T16:08:18;8.20;;;5.10;;
64641;SDS011;59936;51.490;5.436;2024-03-22T16:10:45;7.30;;;4.30;;
64641;SDS011;59936;51.490;5.436;2024-03-22T16:13:12;7.60;;;4.40;;
64641;SDS011;59936;51.490;5.436;2024-03-22T16:15:39;7.20;;;4.20;;
64641;SDS011;59936;51.490;5.436;2024-03-22T16:18:11;5.70;;;3.70;;
64641;SDS011;59936;51.490;5.436;2024-03-22T16:20:38;5.70;;;2.80;;
64641;SDS011;59936;51.490;5.436;2024-03-22T16:23:05;5.30;;;3.10;;
64641;SDS011;59936;51.490;5.436;2024-03-22T16:28:03;6.10;;;3.70;;
64641;SDS011;59936;51.490;5.436;2024-03-22T16:30:30;6.80;;;3.80;;
64641;SDS011;59936;51.490;5.436;2024-03-22T16:32:58;5.90;;;3.80;;
64641;SDS011;59936;51.490;5.436;2024-03-22T16:35:25;5.30;;;3.10;;
64641;SDS011;59936;51.490;5.436;2024-03-22T16:37:52;8.30;;;5.20;;
64641;SDS011;59936;51.490;5.436;2024-03-22T16:40:19;7.10;;;4.40;;
64641;SDS011;59936;51.490;5.436;2024-03-22T16:42:47;8.50;;;5.20;;
64641;SDS011;59936;51.490;5.436;2024-03-22T16:45:16;9.50;;;5.40;;
64641;SDS011;59936;51.490;5.436;2024-03-22T16:47:44;7.20;;;4.50;;
64641;SDS011;59936;51.490;5.436;2024-03-22T16:50:11;11.00;;;5.30;;
64641;SDS011;59936;51.490;5.436;2024-03-22T16:52:38;10.10;;;5.70;;
64641;SDS011;59936;51.490;5.436;2024-03-22T16:55:06;9.20;;;5.00;;
64641;SDS011;59936;51.490;5.436;2024-03-22T16:57:34;8.10;;;4.20;;
64641;SDS011;59936;51.490;5.436;2024-03-22T17:00:00;8.20;;;4.60;;
64641;SDS011;59936;51.490;5.436;2024-03-22T17:02:28;11.80;;;5.70;;
64641;SDS011;59936;51.490;5.436;2024-03-22T17:04:54;11.70;;;5.60;;
64641;SDS011;59936;51.490;5.436;2024-03-22T17:07:21;9.70;;;5.00;;
64641;SDS011;59936;51.490;5.436;2024-03-22T17:09:48;9.20;;;4.90;;
64641;SDS011;59936;51.490;5.436;2024-03-22T17:12:15;12.80;;;6.60;;
64641;SDS011;59936;51.490;5.436;2024-03-22T17:14:42;7.70;;;4.10;;
64641;SDS011;59936;51.490;5.436;2024-03-22T17:17:09;9.80;;;3.70;;
64641;SDS011;59936;51.490;5.436;2024-03-22T17:19:35;9.20;;;4.50;;
64641;SDS011;59936;51.490;5.436;2024-03-22T17:22:02;7.60;;;3.40;;
64641;SDS011;59936;51.490;5.436;2024-03-22T17:24:30;8.90;;;3.90;;
64641;SDS011;59936;51.490;5.436;2024-03-22T17:26:56;7.90;;;3.20;;
64641;SDS011;59936;51.490;5.436;2024-03-22T17:31:50;6.40;;;2.30;;
64641;SDS011;59936;51.490;5.436;2024-03-22T17:34:17;5.50;;;2.70;;